Aviation Digital Data Service (ADDS)

Output produced by METARs form (1434 UTC 25 June 2019)
found at http://www.aviationweather.gov/metar/data/
 
METAR text: ROMD 251400Z AUTO VRB07KT 9999 SCT005 BKN007 BKN140 25/24 Q1012
Conditions at: ROMD (MINAMIDAITOJIMA , JP) observed 1400 UTC 25 June 2019
Temperature: 25.0°C (77°F)
Dewpoint: 24.0°C (75°F) [RH = 94%]
Pressure (altimeter): 29.88 inches Hg (1012.0 mb)
Winds: variable direction winds at 8 MPH (7 knots; 3.6 m/s)
Visibility: 6 or more miles (10+ km)
Ceiling: 700 feet AGL
Clouds: scattered clouds at 500 feet AGL
broken clouds at 700 feet AGL
broken clouds at 14000 feet AGL
Weather: no significant weather observed at this time

METAR text: ROMD 251300Z AUTO VRB08KT 9999 FEW005 BKN140 BKN150 25/24 Q1011
Conditions at: ROMD (MINAMIDAITOJIMA , JP) observed 1300 UTC 25 June 2019
Temperature: 25.0°C (77°F)
Dewpoint: 24.0°C (75°F) [RH = 94%]
Pressure (altimeter): 29.85 inches Hg (1011.0 mb)
Winds: variable direction winds at 9 MPH (8 knots; 4.1 m/s)
Visibility: 6 or more miles (10+ km)
Ceiling: 14000 feet AGL
Clouds: few clouds at 500 feet AGL
broken clouds at 14000 feet AGL
broken clouds at 15000 feet AGL
Weather: no significant weather observed at this time

METAR text: ROMD 251200Z AUTO VRB06KT 9999 -RA BKN005 OVC120 25/25 Q1012
Conditions at: ROMD (MINAMIDAITOJIMA , JP) observed 1200 UTC 25 June 2019
Temperature: 25.0°C (77°F)
Dewpoint: 25.0°C (77°F) [RH = 100%]
Pressure (altimeter): 29.88 inches Hg (1012.0 mb)
Winds: variable direction winds at 7 MPH (6 knots; 3.1 m/s)
Visibility: 6 or more miles (10+ km)
Ceiling: 500 feet AGL
Clouds: broken clouds at 500 feet AGL
overcast cloud deck at 12000 feet AGL
Weather: -RA  (light rain)

METAR text: ROMD 251100Z AUTO 14008KT 100V170 9999 FEW005 SCT110 BKN130 25/25 Q1013
Conditions at: ROMD (MINAMIDAITOJIMA , JP) observed 1100 UTC 25 June 2019
Temperature: 25.0°C (77°F)
Dewpoint: 25.0°C (77°F) [RH = 100%]
Pressure (altimeter): 29.91 inches Hg (1013.0 mb)
Winds: from the SE (140 degrees) at 9 MPH (8 knots; 4.1 m/s)
Visibility: 6 or more miles (10+ km)
Ceiling: 13000 feet AGL
Clouds: few clouds at 500 feet AGL
scattered clouds at 11000 feet AGL
broken clouds at 13000 feet AGL
Weather: no significant weather observed at this time

METAR text: ROMD 251000Z AUTO 14011KT 110V170 9999 -RA BKN005 OVC007 25/25 Q1012
Conditions at: ROMD (MINAMIDAITOJIMA , JP) observed 1000 UTC 25 June 2019
Temperature: 25.0°C (77°F)
Dewpoint: 25.0°C (77°F) [RH = 100%]
Pressure (altimeter): 29.88 inches Hg (1012.0 mb)
Winds: from the SE (140 degrees) at 13 MPH (11 knots; 5.7 m/s)
Visibility: 6 or more miles (10+ km)
Ceiling: 500 feet AGL
Clouds: broken clouds at 500 feet AGL
overcast cloud deck at 700 feet AGL
Weather: -RA  (light rain)

METAR text: ROMD 250900Z AUTO 14009KT 9999 -RA BKN005 OVC007 25/25 Q1012
Conditions at: ROMD (MINAMIDAITOJIMA , JP) observed 0900 UTC 25 June 2019
Temperature: 25.0°C (77°F)
Dewpoint: 25.0°C (77°F) [RH = 100%]
Pressure (altimeter): 29.88 inches Hg (1012.0 mb)
Winds: from the SE (140 degrees) at 10 MPH (9 knots; 4.6 m/s)
Visibility: 6 or more miles (10+ km)
Ceiling: 500 feet AGL
Clouds: broken clouds at 500 feet AGL
overcast cloud deck at 700 feet AGL
Weather: -RA  (light rain)

METAR text: ROMD 250823Z AUTO 14010KT 9999 -RA FEW005 BKN007 OVC015 25/24 Q1012 RMK A2989
Conditions at: ROMD (MINAMIDAITOJIMA , JP) observed 0823 UTC 25 June 2019
Temperature: 25.0°C (77°F)
Dewpoint: 24.0°C (75°F) [RH = 94%]
Pressure (altimeter): 29.88 inches Hg (1012.0 mb)
Winds: from the SE (140 degrees) at 12 MPH (10 knots; 5.1 m/s)
Visibility: 6 or more miles (10+ km)
Ceiling: 700 feet AGL
Clouds: few clouds at 500 feet AGL
broken clouds at 700 feet AGL
overcast cloud deck at 1500 feet AGL
Weather: -RA  (light rain)

METAR text: ROMD 250817Z AUTO 14010KT 9999 -RA BKN004 OVC015 25/24 Q1012 RMK A2989
Conditions at: ROMD (MINAMIDAITOJIMA , JP) observed 0817 UTC 25 June 2019
Temperature: 25.0°C (77°F)
Dewpoint: 24.0°C (75°F) [RH = 94%]
Pressure (altimeter): 29.88 inches Hg (1012.0 mb)
Winds: from the SE (140 degrees) at 12 MPH (10 knots; 5.1 m/s)
Visibility: 6 or more miles (10+ km)
Ceiling: 400 feet AGL
Clouds: broken clouds at 400 feet AGL
overcast cloud deck at 1500 feet AGL
Weather: -RA  (light rain)

METAR text: ROMD 250815Z AUTO 14010KT 9999 -RA SCT004 BKN008 BKN011 25/24 Q1012 RMK A2990
Conditions at: ROMD (MINAMIDAITOJIMA , JP) observed 0815 UTC 25 June 2019
Temperature: 25.0°C (77°F)
Dewpoint: 24.0°C (75°F) [RH = 94%]
Pressure (altimeter): 29.88 inches Hg (1012.0 mb)
Winds: from the SE (140 degrees) at 12 MPH (10 knots; 5.1 m/s)
Visibility: 6 or more miles (10+ km)
Ceiling: 800 feet AGL
Clouds: scattered clouds at 400 feet AGL
broken clouds at 800 feet AGL
broken clouds at 1100 feet AGL
Weather: -RA  (light rain)

METAR text: ROMD 250800Z AUTO 14010KT 120V180 9999 -RA FEW003 OVC014 25/24 Q1012
Conditions at: ROMD (MINAMIDAITOJIMA , JP) observed 0800 UTC 25 June 2019
Temperature: 25.0°C (77°F)
Dewpoint: 24.0°C (75°F) [RH = 94%]
Pressure (altimeter): 29.88 inches Hg (1012.0 mb)
Winds: from the SE (140 degrees) at 12 MPH (10 knots; 5.1 m/s)
Visibility: 6 or more miles (10+ km)
Ceiling: 1400 feet AGL
Clouds: few clouds at 300 feet AGL
overcast cloud deck at 1400 feet AGL
Weather: -RA  (light rain)

METAR text: ROMD 250729Z AUTO 14010KT 110V180 9999 -RA BKN003 25/24 Q1012 RMK A2990
Conditions at: ROMD (MINAMIDAITOJIMA , JP) observed 0729 UTC 25 June 2019
Temperature: 25.0°C (77°F)
Dewpoint: 24.0°C (75°F) [RH = 94%]
Pressure (altimeter): 29.88 inches Hg (1012.0 mb)
Winds: from the SE (140 degrees) at 12 MPH (10 knots; 5.1 m/s)
Visibility: 6 or more miles (10+ km)
Ceiling: 300 feet AGL
Clouds: broken clouds at 300 feet AGL
Weather: -RA  (light rain)

METAR text: ROMD 250723Z AUTO 14009KT 9999 -RA SCT003 BKN005 25/24 Q1012 RMK A2990
Conditions at: ROMD (MINAMIDAITOJIMA , JP) observed 0723 UTC 25 June 2019
Temperature: 25.0°C (77°F)
Dewpoint: 24.0°C (75°F) [RH = 94%]
Pressure (altimeter): 29.88 inches Hg (1012.0 mb)
Winds: from the SE (140 degrees) at 10 MPH (9 knots; 4.6 m/s)
Visibility: 6 or more miles (10+ km)
Ceiling: 500 feet AGL
Clouds: scattered clouds at 300 feet AGL
broken clouds at 500 feet AGL
Weather: -RA  (light rain)

METAR text: ROMD 250700Z AUTO 14008KT 100V180 9999 -RA FEW005 SCT045 BKN050 25/24 Q1012
Conditions at: ROMD (MINAMIDAITOJIMA , JP) observed 0700 UTC 25 June 2019
Temperature: 25.0°C (77°F)
Dewpoint: 24.0°C (75°F) [RH = 94%]
Pressure (altimeter): 29.88 inches Hg (1012.0 mb)
Winds: from the SE (140 degrees) at 9 MPH (8 knots; 4.1 m/s)
Visibility: 6 or more miles (10+ km)
Ceiling: 5000 feet AGL
Clouds: few clouds at 500 feet AGL
scattered clouds at 4500 feet AGL
broken clouds at 5000 feet AGL
Weather: -RA  (light rain)

METAR text: ROMD 250612Z AUTO 16009KT 120V190 9999 -RA FEW005 SCT012 BKN032 25/24 Q1012 RMK A2991
Conditions at: ROMD (MINAMIDAITOJIMA , JP) observed 0612 UTC 25 June 2019
Temperature: 25.0°C (77°F)
Dewpoint: 24.0°C (75°F) [RH = 94%]
Pressure (altimeter): 29.88 inches Hg (1012.0 mb)
Winds: from the SSE (160 degrees) at 10 MPH (9 knots; 4.6 m/s)
Visibility: 6 or more miles (10+ km)
Ceiling: 3200 feet AGL
Clouds: few clouds at 500 feet AGL
scattered clouds at 1200 feet AGL
broken clouds at 3200 feet AGL
Weather: -RA  (light rain)

METAR text: ROMD 250600Z AUTO 16008KT 120V190 9999 -RA BKN005 OVC060 25/24 Q1012
Conditions at: ROMD (MINAMIDAITOJIMA , JP) observed 0600 UTC 25 June 2019
Temperature: 25.0°C (77°F)
Dewpoint: 24.0°C (75°F) [RH = 94%]
Pressure (altimeter): 29.88 inches Hg (1012.0 mb)
Winds: from the SSE (160 degrees) at 9 MPH (8 knots; 4.1 m/s)
Visibility: 6 or more miles (10+ km)
Ceiling: 500 feet AGL
Clouds: broken clouds at 500 feet AGL
overcast cloud deck at 6000 feet AGL
Weather: -RA  (light rain)

METAR text: ROMD 250527Z AUTO 16010KT 130V200 9999 -RA BKN005 BKN050 BKN060 25/24 Q1012 RMK A2991
Conditions at: ROMD (MINAMIDAITOJIMA , JP) observed 0527 UTC 25 June 2019
Temperature: 25.0°C (77°F)
Dewpoint: 24.0°C (75°F) [RH = 94%]
Pressure (altimeter): 29.88 inches Hg (1012.0 mb)
Winds: from the SSE (160 degrees) at 12 MPH (10 knots; 5.1 m/s)
Visibility: 6 or more miles (10+ km)
Ceiling: 500 feet AGL
Clouds: broken clouds at 500 feet AGL
broken clouds at 5000 feet AGL
broken clouds at 6000 feet AGL
Weather: -RA  (light rain)

METAR text: ROMD 250500Z AUTO 16010KT 8000 -RA FEW004 SCT027 BKN035 25/24 Q1012
Conditions at: ROMD (MINAMIDAITOJIMA , JP) observed 0500 UTC 25 June 2019
Temperature: 25.0°C (77°F)
Dewpoint: 24.0°C (75°F) [RH = 94%]
Pressure (altimeter): 29.88 inches Hg (1012.0 mb)
Winds: from the SSE (160 degrees) at 12 MPH (10 knots; 5.1 m/s)
Visibility: 5 miles ( 8 km)
Ceiling: 3500 feet AGL
Clouds: few clouds at 400 feet AGL
scattered clouds at 2700 feet AGL
broken clouds at 3500 feet AGL
Weather: -RA  (light rain)

METAR text: ROMD 250437Z AUTO 17013KT 9999 -RA BKN004 //////TCU 25/24 Q1012 RMK A2991 TCU 25KM SW MOV NE
Conditions at: ROMD (MINAMIDAITOJIMA , JP) observed 0437 UTC 25 June 2019
Temperature: 25.0°C (77°F)
Dewpoint: 24.0°C (75°F) [RH = 94%]
Pressure (altimeter): 29.88 inches Hg (1012.0 mb)
Winds: from the S (170 degrees) at 15 MPH (13 knots; 6.7 m/s)
Visibility: 6 or more miles (10+ km)
Ceiling: 400 feet AGL
Clouds: broken clouds at 400 feet AGL
Weather: -RA  (light rain)

METAR text: ROMD 250429Z AUTO 17012KT 9999 SCT007 BKN009 BKN041 26/24 Q1013 RMK A2991
Conditions at: ROMD (MINAMIDAITOJIMA , JP) observed 0429 UTC 25 June 2019
Temperature: 26.0°C (79°F)
Dewpoint: 24.0°C (75°F) [RH = 89%]
Pressure (altimeter): 29.91 inches Hg (1013.0 mb)
Winds: from the S (170 degrees) at 14 MPH (12 knots; 6.2 m/s)
Visibility: 6 or more miles (10+ km)
Ceiling: 900 feet AGL
Clouds: scattered clouds at 700 feet AGL
broken clouds at 900 feet AGL
broken clouds at 4100 feet AGL
Weather: no significant weather observed at this time

METAR text: ROMD 250400Z AUTO 16011KT 9999 FEW044 BKN140 BKN150 //////TCU 26/24 Q1012
Conditions at: ROMD (MINAMIDAITOJIMA , JP) observed 0400 UTC 25 June 2019
Temperature: 26.0°C (79°F)
Dewpoint: 24.0°C (75°F) [RH = 89%]
Pressure (altimeter): 29.88 inches Hg (1012.0 mb)
Winds: from the SSE (160 degrees) at 13 MPH (11 knots; 5.7 m/s)
Visibility: 6 or more miles (10+ km)
Ceiling: 14000 feet AGL
Clouds: few clouds at 4400 feet AGL
broken clouds at 14000 feet AGL
broken clouds at 15000 feet AGL
Weather: no significant weather observed at this time

METAR text: ROMD 250300Z AUTO 15007KT 110V180 9999 NSC 26/25 Q1012
Conditions at: ROMD (MINAMIDAITOJIMA , JP) observed 0300 UTC 25 June 2019
Temperature: 26.0°C (79°F)
Dewpoint: 25.0°C (77°F) [RH = 94%]
Pressure (altimeter): 29.88 inches Hg (1012.0 mb)
Winds: from the SSE (150 degrees) at 8 MPH (7 knots; 3.6 m/s)
Visibility: 6 or more miles (10+ km)
Ceiling: at least 12,000 feet AGL
Clouds: sky clear below 12,000 feet AGL
Weather: no significant weather observed at this time

METAR text: ROMD 250200Z AUTO 14008KT 9999 FEW005 SCT100 BKN110 26/25 Q1012
Conditions at: ROMD (MINAMIDAITOJIMA , JP) observed 0200 UTC 25 June 2019
Temperature: 26.0°C (79°F)
Dewpoint: 25.0°C (77°F) [RH = 94%]
Pressure (altimeter): 29.88 inches Hg (1012.0 mb)
Winds: from the SE (140 degrees) at 9 MPH (8 knots; 4.1 m/s)
Visibility: 6 or more miles (10+ km)
Ceiling: 11000 feet AGL
Clouds: few clouds at 500 feet AGL
scattered clouds at 10000 feet AGL
broken clouds at 11000 feet AGL
Weather: no significant weather observed at this time

METAR text: ROMD 250140Z AUTO 14010KT 9999 BKN004 25/24 Q1012 RMK A2990
Conditions at: ROMD (MINAMIDAITOJIMA , JP) observed 0140 UTC 25 June 2019
Temperature: 25.0°C (77°F)
Dewpoint: 24.0°C (75°F) [RH = 94%]
Pressure (altimeter): 29.88 inches Hg (1012.0 mb)
Winds: from the SE (140 degrees) at 12 MPH (10 knots; 5.1 m/s)
Visibility: 6 or more miles (10+ km)
Ceiling: 400 feet AGL
Clouds: broken clouds at 400 feet AGL
Weather: no significant weather observed at this time

METAR text: ROMD 250136Z AUTO 14010KT 9999 BKN005 BKN120 25/25 Q1012 RMK A2990
Conditions at: ROMD (MINAMIDAITOJIMA , JP) observed 0136 UTC 25 June 2019
Temperature: 25.0°C (77°F)
Dewpoint: 25.0°C (77°F) [RH = 100%]
Pressure (altimeter): 29.88 inches Hg (1012.0 mb)
Winds: from the SE (140 degrees) at 12 MPH (10 knots; 5.1 m/s)
Visibility: 6 or more miles (10+ km)
Ceiling: 500 feet AGL
Clouds: broken clouds at 500 feet AGL
broken clouds at 12000 feet AGL
Weather: no significant weather observed at this time

METAR text: ROMD 250127Z AUTO 14010KT 110V170 9999 FEW005 SCT007 BKN120 25/25 Q1012 RMK A2990
Conditions at: ROMD (MINAMIDAITOJIMA , JP) observed 0127 UTC 25 June 2019
Temperature: 25.0°C (77°F)
Dewpoint: 25.0°C (77°F) [RH = 100%]
Pressure (altimeter): 29.88 inches Hg (1012.0 mb)
Winds: from the SE (140 degrees) at 12 MPH (10 knots; 5.1 m/s)
Visibility: 6 or more miles (10+ km)
Ceiling: 12000 feet AGL
Clouds: few clouds at 500 feet AGL
scattered clouds at 700 feet AGL
broken clouds at 12000 feet AGL
Weather: no significant weather observed at this time

METAR text: ROMD 250113Z AUTO 13006KT 090V180 9999 FEW003 BKN005 26/25 Q1012 RMK A2990
Conditions at: ROMD (MINAMIDAITOJIMA , JP) observed 0113 UTC 25 June 2019
Temperature: 26.0°C (79°F)
Dewpoint: 25.0°C (77°F) [RH = 94%]
Pressure (altimeter): 29.88 inches Hg (1012.0 mb)
Winds: from the SE (130 degrees) at 7 MPH (6 knots; 3.1 m/s)
Visibility: 6 or more miles (10+ km)
Ceiling: 500 feet AGL
Clouds: few clouds at 300 feet AGL
broken clouds at 500 feet AGL
Weather: no significant weather observed at this time

METAR text: ROMD 250100Z AUTO 12005KT 020V190 9999 NSC 25/25 Q1012
Conditions at: ROMD (MINAMIDAITOJIMA , JP) observed 0100 UTC 25 June 2019
Temperature: 25.0°C (77°F)
Dewpoint: 25.0°C (77°F) [RH = 100%]
Pressure (altimeter): 29.88 inches Hg (1012.0 mb)
Winds: from the ESE (120 degrees) at 6 MPH (5 knots; 2.6 m/s)
Visibility: 6 or more miles (10+ km)
Ceiling: at least 12,000 feet AGL
Clouds: sky clear below 12,000 feet AGL
Weather: no significant weather observed at this time

METAR text: ROMD 250040Z AUTO 10006KT 020V170 9999 FEW002 25/24 Q1012 RMK A2990
Conditions at: ROMD (MINAMIDAITOJIMA , JP) observed 0040 UTC 25 June 2019
Temperature: 25.0°C (77°F)
Dewpoint: 24.0°C (75°F) [RH = 94%]
Pressure (altimeter): 29.88 inches Hg (1012.0 mb)
Winds: from the E (100 degrees) at 7 MPH (6 knots; 3.1 m/s)
Visibility: 6 or more miles (10+ km)
Ceiling: at least 12,000 feet AGL
Clouds: few clouds at 200 feet AGL
Weather: no significant weather observed at this time

METAR text: ROMD 250008Z AUTO VRB06KT 9999 -RA BKN003 24/24 Q1012 RMK A2991
Conditions at: ROMD (MINAMIDAITOJIMA , JP) observed 0008 UTC 25 June 2019
Temperature: 24.0°C (75°F)
Dewpoint: 24.0°C (75°F) [RH = 100%]
Pressure (altimeter): 29.88 inches Hg (1012.0 mb)
Winds: variable direction winds at 7 MPH (6 knots; 3.1 m/s)
Visibility: 6 or more miles (10+ km)
Ceiling: 300 feet AGL
Clouds: broken clouds at 300 feet AGL
Weather: -RA  (light rain)

METAR text: ROMD 250000Z AUTO VRB06KT 9999 -RA FEW042 SCT060 BKN090 24/24 Q1012
Conditions at: ROMD (MINAMIDAITOJIMA , JP) observed 0000 UTC 25 June 2019
Temperature: 24.0°C (75°F)
Dewpoint: 24.0°C (75°F) [RH = 100%]
Pressure (altimeter): 29.88 inches Hg (1012.0 mb)
Winds: variable direction winds at 7 MPH (6 knots; 3.1 m/s)
Visibility: 6 or more miles (10+ km)
Ceiling: 9000 feet AGL
Clouds: few clouds at 4200 feet AGL
scattered clouds at 6000 feet AGL
broken clouds at 9000 feet AGL
Weather: -RA  (light rain)

METAR text: ROMD 242311Z AUTO VRB06KT 9999 -RA FEW003 SCT009 BKN036 24/24 Q1012 RMK A2990
Conditions at: ROMD (MINAMIDAITOJIMA , JP) observed 2311 UTC 24 June 2019
Temperature: 24.0°C (75°F)
Dewpoint: 24.0°C (75°F) [RH = 100%]
Pressure (altimeter): 29.88 inches Hg (1012.0 mb)
Winds: variable direction winds at 7 MPH (6 knots; 3.1 m/s)
Visibility: 6 or more miles (10+ km)
Ceiling: 3600 feet AGL
Clouds: few clouds at 300 feet AGL
scattered clouds at 900 feet AGL
broken clouds at 3600 feet AGL
Weather: -RA  (light rain)

METAR text: ROMD 242300Z AUTO 10007KT 050V140 9999 -RA FEW002 BKN005 OVC100 24/24 Q1012
Conditions at: ROMD (MINAMIDAITOJIMA , JP) observed 2300 UTC 24 June 2019
Temperature: 24.0°C (75°F)
Dewpoint: 24.0°C (75°F) [RH = 100%]
Pressure (altimeter): 29.88 inches Hg (1012.0 mb)
Winds: from the E (100 degrees) at 8 MPH (7 knots; 3.6 m/s)
Visibility: 6 or more miles (10+ km)
Ceiling: 500 feet AGL
Clouds: few clouds at 200 feet AGL
broken clouds at 500 feet AGL
overcast cloud deck at 10000 feet AGL
Weather: -RA  (light rain)

METAR text: ROMD 242200Z AUTO VRB05KT 9999 FEW003 SCT120 BKN130 //////CB 24/24 Q1012
Conditions at: ROMD (MINAMIDAITOJIMA , JP) observed 2200 UTC 24 June 2019
Temperature: 24.0°C (75°F)
Dewpoint: 24.0°C (75°F) [RH = 100%]
Pressure (altimeter): 29.88 inches Hg (1012.0 mb)
Winds: variable direction winds at 6 MPH (5 knots; 2.6 m/s)
Visibility: 6 or more miles (10+ km)
Ceiling: 13000 feet AGL
Clouds: few clouds at 300 feet AGL
scattered clouds at 12000 feet AGL
broken clouds at 13000 feet AGL
Weather: no significant weather observed at this time

METAR text: ROMD 242100Z AUTO 13005KT 080V170 9999 FEW044 SCT120 BKN130 24/24 Q1012
Conditions at: ROMD (MINAMIDAITOJIMA , JP) observed 2100 UTC 24 June 2019
Temperature: 24.0°C (75°F)
Dewpoint: 24.0°C (75°F) [RH = 100%]
Pressure (altimeter): 29.88 inches Hg (1012.0 mb)
Winds: from the SE (130 degrees) at 6 MPH (5 knots; 2.6 m/s)
Visibility: 6 or more miles (10+ km)
Ceiling: 13000 feet AGL
Clouds: few clouds at 4400 feet AGL
scattered clouds at 12000 feet AGL
broken clouds at 13000 feet AGL
Weather: no significant weather observed at this time

METAR text: ROMD 242000Z AUTO 13004KT 080V160 9999 FEW022 SCT028 BKN033 24/24 Q1012
Conditions at: ROMD (MINAMIDAITOJIMA , JP) observed 2000 UTC 24 June 2019
Temperature: 24.0°C (75°F)
Dewpoint: 24.0°C (75°F) [RH = 100%]
Pressure (altimeter): 29.88 inches Hg (1012.0 mb)
Winds: from the SE (130 degrees) at 5 MPH (4 knots; 2.1 m/s)
Visibility: 6 or more miles (10+ km)
Ceiling: 3300 feet AGL
Clouds: few clouds at 2200 feet AGL
scattered clouds at 2800 feet AGL
broken clouds at 3300 feet AGL
Weather: no significant weather observed at this time

METAR text: ROMD 241900Z AUTO 09004KT 060V130 9999 FEW001 SCT039 BKN170 24/24 Q1011
Conditions at: ROMD (MINAMIDAITOJIMA , JP) observed 1900 UTC 24 June 2019
Temperature: 24.0°C (75°F)
Dewpoint: 24.0°C (75°F) [RH = 100%]
Pressure (altimeter): 29.85 inches Hg (1011.0 mb)
Winds: from the E (90 degrees) at 5 MPH (4 knots; 2.1 m/s)
Visibility: 6 or more miles (10+ km)
Ceiling: 17000 feet AGL
Clouds: few clouds at 100 feet AGL
scattered clouds at 3900 feet AGL
broken clouds at 17000 feet AGL
Weather: no significant weather observed at this time

METAR text: ROMD 241800Z AUTO 14004KT 9000 -RA FEW003 SCT160 BKN170 //////CB 24/24 Q1012
Conditions at: ROMD (MINAMIDAITOJIMA , JP) observed 1800 UTC 24 June 2019
Temperature: 24.0°C (75°F)
Dewpoint: 24.0°C (75°F) [RH = 100%]
Pressure (altimeter): 29.88 inches Hg (1012.0 mb)
Winds: from the SE (140 degrees) at 5 MPH (4 knots; 2.1 m/s)
Visibility: 6 miles ( 9 km)
Ceiling: 17000 feet AGL
Clouds: few clouds at 300 feet AGL
scattered clouds at 16000 feet AGL
broken clouds at 17000 feet AGL
Weather: -RA  (light rain)

METAR text: ROMD 241700Z AUTO 14007KT 120V190 9999 -RA FEW004 BKN007 BKN070 //////CB 24/24 Q1012
Conditions at: ROMD (MINAMIDAITOJIMA , JP) observed 1700 UTC 24 June 2019
Temperature: 24.0°C (75°F)
Dewpoint: 24.0°C (75°F) [RH = 100%]
Pressure (altimeter): 29.88 inches Hg (1012.0 mb)
Winds: from the SE (140 degrees) at 8 MPH (7 knots; 3.6 m/s)
Visibility: 6 or more miles (10+ km)
Ceiling: 700 feet AGL
Clouds: few clouds at 400 feet AGL
broken clouds at 700 feet AGL
broken clouds at 7000 feet AGL
Weather: -RA  (light rain)

METAR text: ROMD 241600Z AUTO 12004KT 040V200 9999 -RA FEW011 SCT031 BKN041 //////CB 25/24 Q1012
Conditions at: ROMD (MINAMIDAITOJIMA , JP) observed 1600 UTC 24 June 2019
Temperature: 25.0°C (77°F)
Dewpoint: 24.0°C (75°F) [RH = 94%]
Pressure (altimeter): 29.88 inches Hg (1012.0 mb)
Winds: from the ESE (120 degrees) at 5 MPH (4 knots; 2.1 m/s)
Visibility: 6 or more miles (10+ km)
Ceiling: 4100 feet AGL
Clouds: few clouds at 1100 feet AGL
scattered clouds at 3100 feet AGL
broken clouds at 4100 feet AGL
Weather: -RA  (light rain)

METAR text: ROMD 241500Z AUTO 07004KT 010V120 9999 BKN013 BKN210 BKN230 24/24 Q1012
Conditions at: ROMD (MINAMIDAITOJIMA , JP) observed 1500 UTC 24 June 2019
Temperature: 24.0°C (75°F)
Dewpoint: 24.0°C (75°F) [RH = 100%]
Pressure (altimeter): 29.88 inches Hg (1012.0 mb)
Winds: from the ENE (70 degrees) at 5 MPH (4 knots; 2.1 m/s)
Visibility: 6 or more miles (10+ km)
Ceiling: 1300 feet AGL
Clouds: broken clouds at 1300 feet AGL
broken clouds at 21000 feet AGL
broken clouds at 23000 feet AGL
Weather: no significant weather observed at this time

METAR text: ROMD 241400Z AUTO 08004KT 040V130 9999 BKN220 BKN230 OVC240 //////TCU 24/23 Q1012
Conditions at: ROMD (MINAMIDAITOJIMA , JP) observed 1400 UTC 24 June 2019
Temperature: 24.0°C (75°F)
Dewpoint: 23.0°C (73°F) [RH = 94%]
Pressure (altimeter): 29.88 inches Hg (1012.0 mb)
Winds: from the E (80 degrees) at 5 MPH (4 knots; 2.1 m/s)
Visibility: 6 or more miles (10+ km)
Ceiling: 22000 feet AGL
Clouds: broken clouds at 22000 feet AGL
broken clouds at 23000 feet AGL
overcast cloud deck at 24000 feet AGL
Weather: no significant weather observed at this time

METAR text: ROMD 241300Z AUTO 06004KT 020V100 9999 NSC 24/23 Q1012
Conditions at: ROMD (MINAMIDAITOJIMA , JP) observed 1300 UTC 24 June 2019
Temperature: 24.0°C (75°F)
Dewpoint: 23.0°C (73°F) [RH = 94%]
Pressure (altimeter): 29.88 inches Hg (1012.0 mb)
Winds: from the ENE (60 degrees) at 5 MPH (4 knots; 2.1 m/s)
Visibility: 6 or more miles (10+ km)
Ceiling: at least 12,000 feet AGL
Clouds: sky clear below 12,000 feet AGL
Weather: no significant weather observed at this time

METAR text: ROMD 241200Z AUTO 33004KT 9999 -RA FEW070 SCT110 BKN140 //////CB 24/23 Q1012
Conditions at: ROMD (MINAMIDAITOJIMA , JP) observed 1200 UTC 24 June 2019
Temperature: 24.0°C (75°F)
Dewpoint: 23.0°C (73°F) [RH = 94%]
Pressure (altimeter): 29.88 inches Hg (1012.0 mb)
Winds: from the NNW (330 degrees) at 5 MPH (4 knots; 2.1 m/s)
Visibility: 6 or more miles (10+ km)
Ceiling: 14000 feet AGL
Clouds: few clouds at 7000 feet AGL
scattered clouds at 11000 feet AGL
broken clouds at 14000 feet AGL
Weather: -RA  (light rain)

METAR text: ROMD 241100Z AUTO 33010KT 290V350 9999 FEW003 SCT007 OVC016 //////CB 24/23 Q1013
Conditions at: ROMD (MINAMIDAITOJIMA , JP) observed 1100 UTC 24 June 2019
Temperature: 24.0°C (75°F)
Dewpoint: 23.0°C (73°F) [RH = 94%]
Pressure (altimeter): 29.91 inches Hg (1013.0 mb)
Winds: from the NNW (330 degrees) at 12 MPH (10 knots; 5.1 m/s)
Visibility: 6 or more miles (10+ km)
Ceiling: 1600 feet AGL
Clouds: few clouds at 300 feet AGL
scattered clouds at 700 feet AGL
overcast cloud deck at 1600 feet AGL
Weather: no significant weather observed at this time

METAR text: ROMD 241000Z AUTO 02003KT 5000 BR FEW002 BKN003 BKN005 //////TCU 26/25 Q1011
Conditions at: ROMD (MINAMIDAITOJIMA , JP) observed 1000 UTC 24 June 2019
Temperature: 26.0°C (79°F)
Dewpoint: 25.0°C (77°F) [RH = 94%]
Pressure (altimeter): 29.85 inches Hg (1011.0 mb)
Winds: from the NNE (20 degrees) at 3 MPH (3 knots; 1.5 m/s)
Visibility: 3 miles ( 5 km)
Ceiling: 300 feet AGL
Clouds: few clouds at 200 feet AGL
broken clouds at 300 feet AGL
broken clouds at 500 feet AGL
Weather: BR  (mist)

METAR text: ROMD 240900Z AUTO VRB02KT 6000 OVC002 //////TCU 26/25 Q1010
Conditions at: ROMD (MINAMIDAITOJIMA , JP) observed 0900 UTC 24 June 2019
Temperature: 26.0°C (79°F)
Dewpoint: 25.0°C (77°F) [RH = 94%]
Pressure (altimeter): 29.82 inches Hg (1010.0 mb)
Winds: variable direction winds at 2 MPH (2 knots; 1.0 m/s)
Visibility: 4 miles ( 6 km)
Ceiling: 200 feet AGL
Clouds: overcast cloud deck at 200 feet AGL
Weather: no significant weather observed at this time

METAR text: ROMD 240800Z AUTO 09003KT 030V160 6000 BKN002 OVC005 //////TCU 25/25 Q1009
Conditions at: ROMD (MINAMIDAITOJIMA , JP) observed 0800 UTC 24 June 2019
Temperature: 25.0°C (77°F)
Dewpoint: 25.0°C (77°F) [RH = 100%]
Pressure (altimeter): 29.79 inches Hg (1009.0 mb)
Winds: from the E (90 degrees) at 3 MPH (3 knots; 1.5 m/s)
Visibility: 4 miles ( 6 km)
Ceiling: 200 feet AGL
Clouds: broken clouds at 200 feet AGL
overcast cloud deck at 500 feet AGL
Weather: no significant weather observed at this time

METAR text: ROMD 240727Z AUTO 08003KT 020V170 3100 BR BKN001 OVC010 //////TCU 25/25 Q1009 RMK A2982 TCU 15KM NW-N MOV N
Conditions at: ROMD (MINAMIDAITOJIMA , JP) observed 0727 UTC 24 June 2019
Temperature: 25.0°C (77°F)
Dewpoint: 25.0°C (77°F) [RH = 100%]
Pressure (altimeter): 29.79 inches Hg (1009.0 mb)
Winds: from the E (80 degrees) at 3 MPH (3 knots; 1.5 m/s)
Visibility: 1.93 miles (3.11 km)
Ceiling: 100 feet AGL
Clouds: broken clouds at 100 feet AGL
overcast cloud deck at 1000 feet AGL
Weather: BR  (mist)

METAR text: ROMD 240724Z AUTO 08003KT 020V170 3600 BR BKN002 BKN008 OVC010 //////TCU 25/25 Q1009 RMK A2982 TCU 15KM NW-N MOV N
Conditions at: ROMD (MINAMIDAITOJIMA , JP) observed 0724 UTC 24 June 2019
Temperature: 25.0°C (77°F)
Dewpoint: 25.0°C (77°F) [RH = 100%]
Pressure (altimeter): 29.79 inches Hg (1009.0 mb)
Winds: from the E (80 degrees) at 3 MPH (3 knots; 1.5 m/s)
Visibility: 2.24 miles (3.60 km)
Ceiling: 200 feet AGL
Clouds: broken clouds at 200 feet AGL
broken clouds at 800 feet AGL
overcast cloud deck at 1000 feet AGL
Weather: BR  (mist)

METAR text: ROMD 240717Z AUTO 08003KT 040V130 4600 BR SCT002 BKN008 OVC013 //////TCU 25/25 Q1009 RMK A2982 TCU 10KM NW-N MOV NW
Conditions at: ROMD (MINAMIDAITOJIMA , JP) observed 0717 UTC 24 June 2019
Temperature: 25.0°C (77°F)
Dewpoint: 25.0°C (77°F) [RH = 100%]
Pressure (altimeter): 29.79 inches Hg (1009.0 mb)
Winds: from the E (80 degrees) at 3 MPH (3 knots; 1.5 m/s)
Visibility: 2.86 miles (4.60 km)
Ceiling: 800 feet AGL
Clouds: scattered clouds at 200 feet AGL
broken clouds at 800 feet AGL
overcast cloud deck at 1300 feet AGL
Weather: BR  (mist)

METAR text: ROMD 240710Z AUTO 06003KT 020V100 6000 FEW002 BKN008 BKN010 //////TCU 25/25 Q1009 RMK A2982 TCU 10KM NW-N MOV NW
Conditions at: ROMD (MINAMIDAITOJIMA , JP) observed 0710 UTC 24 June 2019
Temperature: 25.0°C (77°F)
Dewpoint: 25.0°C (77°F) [RH = 100%]
Pressure (altimeter): 29.79 inches Hg (1009.0 mb)
Winds: from the ENE (60 degrees) at 3 MPH (3 knots; 1.5 m/s)
Visibility: 4 miles ( 6 km)
Ceiling: 800 feet AGL
Clouds: few clouds at 200 feet AGL
broken clouds at 800 feet AGL
broken clouds at 1000 feet AGL
Weather: no significant weather observed at this time

METAR text: ROMD 240707Z AUTO 06004KT 020V110 6000 FEW002 SCT008 BKN010 //////CB 25/25 Q1009 RMK A2982 CB OHD MOV NE AND 25KM N MOV N
Conditions at: ROMD (MINAMIDAITOJIMA , JP) observed 0707 UTC 24 June 2019
Temperature: 25.0°C (77°F)
Dewpoint: 25.0°C (77°F) [RH = 100%]
Pressure (altimeter): 29.79 inches Hg (1009.0 mb)
Winds: from the ENE (60 degrees) at 5 MPH (4 knots; 2.1 m/s)
Visibility: 4 miles ( 6 km)
Ceiling: 1000 feet AGL
Clouds: few clouds at 200 feet AGL
scattered clouds at 800 feet AGL
broken clouds at 1000 feet AGL
Weather: no significant weather observed at this time

METAR text: ROMD 240700Z AUTO 06004KT 020V110 3200 -RA BR SCT002 BKN005 BKN011 //////CB 25/25 Q1009
Conditions at: ROMD (MINAMIDAITOJIMA , JP) observed 0700 UTC 24 June 2019
Temperature: 25.0°C (77°F)
Dewpoint: 25.0°C (77°F) [RH = 100%]
Pressure (altimeter): 29.79 inches Hg (1009.0 mb)
Winds: from the ENE (60 degrees) at 5 MPH (4 knots; 2.1 m/s)
Visibility: 1.99 miles (3.20 km)
Ceiling: 500 feet AGL
Clouds: scattered clouds at 200 feet AGL
broken clouds at 500 feet AGL
broken clouds at 1100 feet AGL
Weather: -RA BR  (light rain, mist)

METAR text: ROMD 240635Z AUTO 06004KT 010V120 7000 FEW002 SCT005 BKN009 //////CB 25/25 Q1010 RMK A2983 CB OHD MOV NE
Conditions at: ROMD (MINAMIDAITOJIMA , JP) observed 0635 UTC 24 June 2019
Temperature: 25.0°C (77°F)
Dewpoint: 25.0°C (77°F) [RH = 100%]
Pressure (altimeter): 29.82 inches Hg (1010.0 mb)
Winds: from the ENE (60 degrees) at 5 MPH (4 knots; 2.1 m/s)
Visibility: 4 miles ( 7 km)
Ceiling: 900 feet AGL
Clouds: few clouds at 200 feet AGL
scattered clouds at 500 feet AGL
broken clouds at 900 feet AGL
Weather: no significant weather observed at this time

METAR text: ROMD 240630Z AUTO 06004KT 010V120 8000 TS FEW000 BKN005 OVC060 //////CB 25/25 Q1010 RMK A2983 TS 15KM N MOV N
Conditions at: ROMD (MINAMIDAITOJIMA , JP) observed 0630 UTC 24 June 2019
Temperature: 25.0°C (77°F)
Dewpoint: 25.0°C (77°F) [RH = 100%]
Pressure (altimeter): 29.82 inches Hg (1010.0 mb)
Winds: from the ENE (60 degrees) at 5 MPH (4 knots; 2.1 m/s)
Visibility: 5 miles ( 8 km)
Ceiling: 500 feet AGL
Clouds: few clouds at 0 feet AGL
broken clouds at 500 feet AGL
overcast cloud deck at 6000 feet AGL
Weather: TS  (thunderstorm)

METAR text: ROMD 240622Z AUTO 07004KT 020V130 6000 FEW000 BKN005 BKN033 //////CB 25/25 Q1009 RMK A2982 CB OHD MOV NE
Conditions at: ROMD (MINAMIDAITOJIMA , JP) observed 0622 UTC 24 June 2019
Temperature: 25.0°C (77°F)
Dewpoint: 25.0°C (77°F) [RH = 100%]
Pressure (altimeter): 29.79 inches Hg (1009.0 mb)
Winds: from the ENE (70 degrees) at 5 MPH (4 knots; 2.1 m/s)
Visibility: 4 miles ( 6 km)
Ceiling: 500 feet AGL
Clouds: few clouds at 0 feet AGL
broken clouds at 500 feet AGL
broken clouds at 3300 feet AGL
Weather: no significant weather observed at this time

METAR text: ROMD 240615Z AUTO 09003KT 020V150 3800 -RA BR SCT000 BKN005 BKN033 //////CB 25/25 Q1009 RMK A2982 CB OHD MOV NE
Conditions at: ROMD (MINAMIDAITOJIMA , JP) observed 0615 UTC 24 June 2019
Temperature: 25.0°C (77°F)
Dewpoint: 25.0°C (77°F) [RH = 100%]
Pressure (altimeter): 29.79 inches Hg (1009.0 mb)
Winds: from the E (90 degrees) at 3 MPH (3 knots; 1.5 m/s)
Visibility: 2.36 miles (3.80 km)
Ceiling: 500 feet AGL
Clouds: scattered clouds at 0 feet AGL
broken clouds at 500 feet AGL
broken clouds at 3300 feet AGL
Weather: -RA BR  (light rain, mist)

METAR text: ROMD 240605Z AUTO 07005KT 010V110 1800 -RA BR BKN000 BKN005 BKN034 //////TCU 25/25 Q1010 RMK A2982 TCU 5KM W MOV NE
Conditions at: ROMD (MINAMIDAITOJIMA , JP) observed 0605 UTC 24 June 2019
Temperature: 25.0°C (77°F)
Dewpoint: 25.0°C (77°F) [RH = 100%]
Pressure (altimeter): 29.82 inches Hg (1010.0 mb)
Winds: from the ENE (70 degrees) at 6 MPH (5 knots; 2.6 m/s)
Visibility: 1.12 miles (1.80 km)
Ceiling: 0 feet AGL
Clouds: broken clouds at 0 feet AGL
broken clouds at 500 feet AGL
broken clouds at 3400 feet AGL
Weather: -RA BR  (light rain, mist)

METAR text: ROMD 240602Z AUTO 09004KT 010V170 2200 RA BR SCT002 SCT005 BKN008 //////TCU 25/25 Q1010 RMK A2983 RI003 TCU 5KM W MOV NE
Conditions at: ROMD (MINAMIDAITOJIMA , JP) observed 0602 UTC 24 June 2019
Temperature: 25.0°C (77°F)
Dewpoint: 25.0°C (77°F) [RH = 100%]
Pressure (altimeter): 29.82 inches Hg (1010.0 mb)
Winds: from the E (90 degrees) at 5 MPH (4 knots; 2.1 m/s)
Visibility: 1.37 miles (2.20 km)
Ceiling: 800 feet AGL
Clouds: scattered clouds at 200 feet AGL
scattered clouds at 500 feet AGL
broken clouds at 800 feet AGL
Weather: RA BR  (moderate rain, mist)

METAR text: ROMD 240600Z AUTO 09004KT 010V170 5000 RA BR FEW002 SCT005 BKN008 //////TCU 25/25 Q1010
Conditions at: ROMD (MINAMIDAITOJIMA , JP) observed 0600 UTC 24 June 2019
Temperature: 25.0°C (77°F)
Dewpoint: 25.0°C (77°F) [RH = 100%]
Pressure (altimeter): 29.82 inches Hg (1010.0 mb)
Winds: from the E (90 degrees) at 5 MPH (4 knots; 2.1 m/s)
Visibility: 3 miles ( 5 km)
Ceiling: 800 feet AGL
Clouds: few clouds at 200 feet AGL
scattered clouds at 500 feet AGL
broken clouds at 800 feet AGL
Weather: RA BR  (moderate rain, mist)

METAR text: ROMD 240542Z AUTO VRB03KT 6000 -RA BKN002 BKN005 OVC007 //////TCU 25/25 Q1010 RMK A2983 TCU OHD MOV N
Conditions at: ROMD (MINAMIDAITOJIMA , JP) observed 0542 UTC 24 June 2019
Temperature: 25.0°C (77°F)
Dewpoint: 25.0°C (77°F) [RH = 100%]
Pressure (altimeter): 29.82 inches Hg (1010.0 mb)
Winds: variable direction winds at 3 MPH (3 knots; 1.5 m/s)
Visibility: 4 miles ( 6 km)
Ceiling: 200 feet AGL
Clouds: broken clouds at 200 feet AGL
broken clouds at 500 feet AGL
overcast cloud deck at 700 feet AGL
Weather: -RA  (light rain)

METAR text: ROMD 240535Z AUTO VRB03KT 4400 -RA BR BKN002 BKN005 OVC007 25/24 Q1010 RMK A2983
Conditions at: ROMD (MINAMIDAITOJIMA , JP) observed 0535 UTC 24 June 2019
Temperature: 25.0°C (77°F)
Dewpoint: 24.0°C (75°F) [RH = 94%]
Pressure (altimeter): 29.82 inches Hg (1010.0 mb)
Winds: variable direction winds at 3 MPH (3 knots; 1.5 m/s)
Visibility: 2.73 miles (4.39 km)
Ceiling: 200 feet AGL
Clouds: broken clouds at 200 feet AGL
broken clouds at 500 feet AGL
overcast cloud deck at 700 feet AGL
Weather: -RA BR  (light rain, mist)

METAR text: ROMD 240520Z AUTO 06004KT 020V120 6000 -TSRA BKN002 OVC007 //////CB 25/24 Q1010 RMK A2983 TS 15KM SE-SW AND 20KM W MOV NW
Conditions at: ROMD (MINAMIDAITOJIMA , JP) observed 0520 UTC 24 June 2019
Temperature: 25.0°C (77°F)
Dewpoint: 24.0°C (75°F) [RH = 94%]
Pressure (altimeter): 29.82 inches Hg (1010.0 mb)
Winds: from the ENE (60 degrees) at 5 MPH (4 knots; 2.1 m/s)
Visibility: 4 miles ( 6 km)
Ceiling: 200 feet AGL
Clouds: broken clouds at 200 feet AGL
overcast cloud deck at 700 feet AGL
Weather: -TSRA  (light rain associated with thunderstorm(s))

METAR text: ROMD 240515Z AUTO 06005KT 020V090 4800 TS BR BKN002 OVC009 //////CB 25/24 Q1010 RMK A2983 TS 15KM S AND SW MOV NE
Conditions at: ROMD (MINAMIDAITOJIMA , JP) observed 0515 UTC 24 June 2019
Temperature: 25.0°C (77°F)
Dewpoint: 24.0°C (75°F) [RH = 94%]
Pressure (altimeter): 29.82 inches Hg (1010.0 mb)
Winds: from the ENE (60 degrees) at 6 MPH (5 knots; 2.6 m/s)
Visibility: 2.98 miles (4.80 km)
Ceiling: 200 feet AGL
Clouds: broken clouds at 200 feet AGL
overcast cloud deck at 900 feet AGL
Weather: TS BR  (thunderstorm, mist)

METAR text: ROMD 240513Z AUTO 05006KT 020V090 5000 BR BKN002 BKN005 OVC009 //////CB 25/24 Q1010 RMK A2983 CB 10KM S MOV NE
Conditions at: ROMD (MINAMIDAITOJIMA , JP) observed 0513 UTC 24 June 2019
Temperature: 25.0°C (77°F)
Dewpoint: 24.0°C (75°F) [RH = 94%]
Pressure (altimeter): 29.82 inches Hg (1010.0 mb)
Winds: from the NE (50 degrees) at 7 MPH (6 knots; 3.1 m/s)
Visibility: 3 miles ( 5 km)
Ceiling: 200 feet AGL
Clouds: broken clouds at 200 feet AGL
broken clouds at 500 feet AGL
overcast cloud deck at 900 feet AGL
Weather: BR  (mist)

METAR text: ROMD 240510Z AUTO 06006KT 030V090 6000 FEW002 SCT003 BKN005 //////CB 25/24 Q1010 RMK A2983 CB 10KM S MOV NE
Conditions at: ROMD (MINAMIDAITOJIMA , JP) observed 0510 UTC 24 June 2019
Temperature: 25.0°C (77°F)
Dewpoint: 24.0°C (75°F) [RH = 94%]
Pressure (altimeter): 29.82 inches Hg (1010.0 mb)
Winds: from the ENE (60 degrees) at 7 MPH (6 knots; 3.1 m/s)
Visibility: 4 miles ( 6 km)
Ceiling: 500 feet AGL
Clouds: few clouds at 200 feet AGL
scattered clouds at 300 feet AGL
broken clouds at 500 feet AGL
Weather: no significant weather observed at this time

METAR text: ROMD 240500Z AUTO 06005KT 020V110 8000 -TSRA SCT003 BKN005 OVC012 //////CB 25/24 Q1010
Conditions at: ROMD (MINAMIDAITOJIMA , JP) observed 0500 UTC 24 June 2019
Temperature: 25.0°C (77°F)
Dewpoint: 24.0°C (75°F) [RH = 94%]
Pressure (altimeter): 29.82 inches Hg (1010.0 mb)
Winds: from the ENE (60 degrees) at 6 MPH (5 knots; 2.6 m/s)
Visibility: 5 miles ( 8 km)
Ceiling: 500 feet AGL
Clouds: scattered clouds at 300 feet AGL
broken clouds at 500 feet AGL
overcast cloud deck at 1200 feet AGL
Weather: -TSRA  (light rain associated with thunderstorm(s))

METAR text: ROMD 240443Z AUTO 08003KT 020V170 4800 -RA BR BKN004 OVC007 //////CB 25/24 Q1010 RMK A2984 CB 25KM S MOV NE
Conditions at: ROMD (MINAMIDAITOJIMA , JP) observed 0443 UTC 24 June 2019
Temperature: 25.0°C (77°F)
Dewpoint: 24.0°C (75°F) [RH = 94%]
Pressure (altimeter): 29.82 inches Hg (1010.0 mb)
Winds: from the E (80 degrees) at 3 MPH (3 knots; 1.5 m/s)
Visibility: 2.98 miles (4.80 km)
Ceiling: 400 feet AGL
Clouds: broken clouds at 400 feet AGL
overcast cloud deck at 700 feet AGL
Weather: -RA BR  (light rain, mist)

METAR text: ROMD 240426Z AUTO 07004KT 010V150 9999 -RA OVC004 //////TCU 25/24 Q1010 RMK A2984 TCU OHD MOV NE
Conditions at: ROMD (MINAMIDAITOJIMA , JP) observed 0426 UTC 24 June 2019
Temperature: 25.0°C (77°F)
Dewpoint: 24.0°C (75°F) [RH = 94%]
Pressure (altimeter): 29.82 inches Hg (1010.0 mb)
Winds: from the ENE (70 degrees) at 5 MPH (4 knots; 2.1 m/s)
Visibility: 6 or more miles (10+ km)
Ceiling: 400 feet AGL
Clouds: overcast cloud deck at 400 feet AGL
Weather: -RA  (light rain)

METAR text: ROMD 240400Z AUTO 06006KT 020V100 9999 -RA BKN005 OVC007 25/24 Q1010
Conditions at: ROMD (MINAMIDAITOJIMA , JP) observed 0400 UTC 24 June 2019
Temperature: 25.0°C (77°F)
Dewpoint: 24.0°C (75°F) [RH = 94%]
Pressure (altimeter): 29.82 inches Hg (1010.0 mb)
Winds: from the ENE (60 degrees) at 7 MPH (6 knots; 3.1 m/s)
Visibility: 6 or more miles (10+ km)
Ceiling: 500 feet AGL
Clouds: broken clouds at 500 feet AGL
overcast cloud deck at 700 feet AGL
Weather: -RA  (light rain)

METAR text: ROMD 240315Z AUTO 07005KT 010V150 9999 -RA BKN004 OVC008 26/25 Q1010 RMK A2984
Conditions at: ROMD (MINAMIDAITOJIMA , JP) observed 0315 UTC 24 June 2019
Temperature: 26.0°C (79°F)
Dewpoint: 25.0°C (77°F) [RH = 94%]
Pressure (altimeter): 29.82 inches Hg (1010.0 mb)
Winds: from the ENE (70 degrees) at 6 MPH (5 knots; 2.6 m/s)
Visibility: 6 or more miles (10+ km)
Ceiling: 400 feet AGL
Clouds: broken clouds at 400 feet AGL
overcast cloud deck at 800 feet AGL
Weather: -RA  (light rain)

METAR text: ROMD 240300Z AUTO 05006KT 010V100 9999 FEW004 BKN008 OVC010 26/25 Q1010
Conditions at: ROMD (MINAMIDAITOJIMA , JP) observed 0300 UTC 24 June 2019
Temperature: 26.0°C (79°F)
Dewpoint: 25.0°C (77°F) [RH = 94%]
Pressure (altimeter): 29.82 inches Hg (1010.0 mb)
Winds: from the NE (50 degrees) at 7 MPH (6 knots; 3.1 m/s)
Visibility: 6 or more miles (10+ km)
Ceiling: 800 feet AGL
Clouds: few clouds at 400 feet AGL
broken clouds at 800 feet AGL
overcast cloud deck at 1000 feet AGL
Weather: no significant weather observed at this time

METAR text: ROMD 240236Z AUTO 07005KT 360V120 9999 BKN004 OVC007 25/24 Q1010 RMK A2984
Conditions at: ROMD (MINAMIDAITOJIMA , JP) observed 0236 UTC 24 June 2019
Temperature: 25.0°C (77°F)
Dewpoint: 24.0°C (75°F) [RH = 94%]
Pressure (altimeter): 29.82 inches Hg (1010.0 mb)
Winds: from the ENE (70 degrees) at 6 MPH (5 knots; 2.6 m/s)
Visibility: 6 or more miles (10+ km)
Ceiling: 400 feet AGL
Clouds: broken clouds at 400 feet AGL
overcast cloud deck at 700 feet AGL
Weather: no significant weather observed at this time